createdAt,value
2022-11-04T00:02:50.732Z,11.5
2022-11-04T00:08:41.544Z,11.5
2022-11-04T09:16:32.520Z,10.9
2022-11-04T09:22:19.820Z,11
2022-11-04T10:26:08.756Z,12
2022-11-04T10:33:08.179Z,11.8
2022-11-04T10:39:00.300Z,12
2022-11-04T11:04:50.680Z,12.4
2022-11-04T11:10:43.856Z,12.6
2022-11-04T11:16:53.290Z,12.7
2022-11-04T11:24:04.245Z,12.7
2022-11-04T11:29:54.227Z,12.8
2022-11-04T11:35:45.389Z,13
2022-11-04T11:41:41.051Z,13
2022-11-04T11:47:39.314Z,12.9
2022-11-04T11:53:29.781Z,12.8
2022-11-04T12:06:30.324Z,12.8
2022-11-04T12:14:53.089Z,12.9
2022-11-04T12:20:42.755Z,12.8
2022-11-04T12:26:32.937Z,12.8
2022-11-04T12:32:22.825Z,12.9
2022-11-04T12:38:12.959Z,12.9
2022-11-04T12:44:02.408Z,12.9
2022-11-04T12:49:52.329Z,12.6
2022-11-04T12:55:43.762Z,12.4
2022-11-04T13:01:35.032Z,12.3
2022-11-04T13:07:35.427Z,12.2
2022-11-04T13:13:33.701Z,12
2022-11-04T13:19:22.858Z,11.9
2022-11-04T13:25:10.947Z,12
2022-11-04T13:31:00.815Z,11.9
2022-11-04T13:36:51.418Z,12.1
2022-11-04T13:42:41.318Z,12.3
2022-11-04T13:48:31.902Z,12.2
2022-11-04T13:54:23.555Z,12.3
2022-11-04T14:00:14.107Z,12.3
2022-11-04T14:06:04.089Z,12.3
2022-11-04T14:11:54.770Z,12.4
2022-11-04T14:17:44.470Z,12.3
2022-11-04T14:23:34.356Z,12.2
2022-11-04T14:29:24.547Z,12.3
2022-11-04T14:35:15.062Z,12.3
2022-11-04T14:41:04.476Z,12.3
2022-11-04T14:46:58.719Z,12.2
2022-11-04T14:55:12.316Z,11.7
2022-11-04T15:00:59.288Z,11.7
2022-11-04T15:06:57.155Z,11.8
2022-11-04T15:12:49.253Z,11.7
2022-11-04T15:18:40.132Z,11.9
2022-11-04T15:24:30.158Z,11.6
2022-11-04T15:30:20.470Z,11.7
2022-11-04T15:36:11.757Z,11.6
2022-11-04T15:42:01.952Z,11.7
2022-11-04T15:47:53.438Z,11.7
2022-11-04T15:53:43.797Z,11.4
2022-11-04T15:59:34.003Z,11.4
2022-11-04T16:05:24.333Z,11.5
2022-11-04T16:11:14.996Z,11.4
2022-11-04T16:17:06.298Z,11.5
2022-11-04T16:22:58.064Z,11.6
2022-11-04T16:28:48.973Z,11.4
2022-11-04T16:34:39.441Z,11.3
2022-11-04T16:40:29.435Z,11.3
2022-11-04T16:46:19.099Z,10.9
2022-11-04T16:52:09.279Z,10.7
2022-11-04T16:57:59.892Z,10.6
2022-11-04T17:03:48.694Z,10.5
2022-11-04T17:09:38.657Z,10.4
2022-11-04T17:15:27.240Z,10.3
2022-11-04T17:21:15.270Z,10.4
2022-11-04T17:27:03.301Z,10.6
2022-11-04T17:32:52.084Z,10.6
2022-11-04T17:38:40.769Z,10.7
2022-11-04T17:44:29.453Z,10.8
2022-11-04T17:50:19.745Z,10.8
2022-11-04T17:56:09.597Z,10.6
2022-11-04T18:02:01.158Z,10.6
2022-11-04T18:07:51.155Z,10.5
2022-11-04T18:13:40.908Z,10.7
2022-11-04T18:19:30.840Z,10.4
2022-11-04T18:25:21.094Z,10.6
2022-11-04T18:31:11.268Z,10.5
2022-11-04T18:37:01.765Z,10.3
2022-11-04T18:42:52.388Z,10.4
2022-11-04T18:48:42.946Z,10.6
2022-11-04T18:54:33.638Z,10.4
2022-11-04T19:00:23.602Z,10.4
2022-11-04T19:06:14.404Z,10.6
2022-11-04T19:12:06.124Z,10.7
2022-11-04T19:17:56.676Z,10.7
2022-11-04T19:23:46.973Z,10.7
2022-11-04T19:29:37.115Z,10.6
2022-11-04T19:35:27.553Z,10.8
2022-11-04T19:41:17.862Z,10.7
2022-11-04T19:47:09.798Z,10.6
2022-11-04T19:53:02.055Z,10.7
2022-11-04T19:58:52.838Z,10.6
2022-11-04T20:04:50.590Z,10.6
2022-11-04T20:10:40.130Z,10.7
2022-11-04T20:16:30.059Z,10.5
2022-11-04T20:22:20.004Z,10.5
2022-11-04T20:28:11.735Z,10.6
2022-11-04T20:34:03.584Z,10.7
2022-11-04T20:39:53.809Z,10.7
2022-11-04T20:45:47.027Z,10.7
2022-11-04T20:51:40.765Z,10.7
2022-11-04T20:57:40.145Z,10.6
2022-11-04T21:03:30.548Z,10.6
2022-11-04T21:09:20.590Z,10.7
2022-11-04T21:15:10.848Z,10.7
2022-11-04T21:21:01.902Z,10.6
2022-11-04T21:26:51.955Z,10.6
2022-11-04T21:32:41.435Z,10.7
2022-11-04T21:38:31.851Z,10.6
2022-11-04T21:44:22.386Z,10.6
2022-11-04T21:50:16.829Z,10.6
2022-11-04T21:56:09.311Z,10.6
2022-11-04T22:02:01.903Z,10.6
2022-11-04T22:07:53.798Z,10.6
2022-11-04T22:13:44.319Z,10.7
2022-11-04T22:19:33.312Z,10.8
2022-11-04T22:25:22.444Z,10.8
2022-11-04T22:31:13.279Z,10.7
2022-11-04T22:37:02.794Z,10.5
2022-11-04T22:42:52.447Z,10.7
2022-11-04T22:48:42.499Z,10.7
2022-11-04T22:54:33.670Z,10.8
2022-11-04T23:00:29.904Z,10.7
2022-11-04T23:06:35.270Z,10.7
2022-11-04T23:18:21.635Z,10.6
2022-11-04T23:24:21.693Z,10.5
2022-11-04T23:30:20.657Z,10.4
2022-11-04T23:36:12.190Z,10.2
2022-11-04T23:42:05.492Z,10.2
2022-11-04T23:47:57.290Z,10.1
2022-11-04T23:53:49.438Z,9.9
2022-11-04T23:59:40.596Z,10
